sensor_id;sensor_type;location;lat;lon;timestamp;P1;durP1;ratioP1;P2;durP2;ratioP2
15106;SDS011;7654;45.308;-75.096;2023-06-22T00:00:03;0.10;;;0.10;;
15106;SDS011;7654;45.308;-75.096;2023-06-22T00:02:38;0.10;;;0.10;;
15106;SDS011;7654;45.308;-75.096;2023-06-22T00:05:08;0.10;;;0.10;;
15106;SDS011;7654;45.308;-75.096;2023-06-22T00:07:38;0.10;;;0.10;;
15106;SDS011;7654;45.308;-75.096;2023-06-22T00:10:08;0.10;;;0.10;;
15106;SDS011;7654;45.308;-75.096;2023-06-22T00:12:39;0.10;;;0.10;;
15106;SDS011;7654;45.308;-75.096;2023-06-22T00:15:11;0.10;;;0.10;;
15106;SDS011;7654;45.308;-75.096;2023-06-22T00:17:42;0.10;;;0.10;;
15106;SDS011;7654;45.308;-75.096;2023-06-22T00:20:12;0.10;;;0.10;;
15106;SDS011;7654;45.308;-75.096;2023-06-22T00:22:43;0.10;;;0.10;;
15106;SDS011;7654;45.308;-75.096;2023-06-22T00:25:15;0.10;;;0.10;;
15106;SDS011;7654;45.308;-75.096;2023-06-22T00:27:45;0.10;;;0.10;;
15106;SDS011;7654;45.308;-75.096;2023-06-22T00:30:17;0.10;;;0.10;;
15106;SDS011;7654;45.308;-75.096;2023-06-22T00:32:48;0.10;;;0.10;;
15106;SDS011;7654;45.308;-75.096;2023-06-22T00:35:18;0.10;;;0.10;;
15106;SDS011;7654;45.308;-75.096;2023-06-22T00:37:48;0.10;;;0.10;;
15106;SDS011;7654;45.308;-75.096;2023-06-22T00:40:19;0.10;;;0.10;;
15106;SDS011;7654;45.308;-75.096;2023-06-22T00:42:49;0.20;;;0.20;;
15106;SDS011;7654;45.308;-75.096;2023-06-22T00:45:21;0.20;;;0.20;;
15106;SDS011;7654;45.308;-75.096;2023-06-22T00:47:52;0.20;;;0.20;;
15106;SDS011;7654;45.308;-75.096;2023-06-22T00:50:25;0.20;;;0.20;;
15106;SDS011;7654;45.308;-75.096;2023-06-22T00:53:01;0.10;;;0.10;;
15106;SDS011;7654;45.308;-75.096;2023-06-22T00:55:36;0.10;;;0.10;;
15106;SDS011;7654;45.308;-75.096;2023-06-22T00:58:11;0.20;;;0.20;;
15106;SDS011;7654;45.308;-75.096;2023-06-22T01:00:43;0.20;;;0.20;;
15106;SDS011;7654;45.308;-75.096;2023-06-22T01:03:13;0.20;;;0.20;;
15106;SDS011;7654;45.308;-75.096;2023-06-22T01:05:44;0.10;;;0.10;;
15106;SDS011;7654;45.308;-75.096;2023-06-22T01:08:20;0.10;;;0.10;;
15106;SDS011;7654;45.308;-75.096;2023-06-22T01:10:59;0.10;;;0.10;;
15106;SDS011;7654;45.308;-75.096;2023-06-22T01:13:37;0.20;;;0.20;;
15106;SDS011;7654;45.308;-75.096;2023-06-22T01:16:16;0.20;;;0.20;;
15106;SDS011;7654;45.308;-75.096;2023-06-22T01:18:55;0.10;;;0.10;;
15106;SDS011;7654;45.308;-75.096;2023-06-22T01:21:30;0.20;;;0.20;;
15106;SDS011;7654;45.308;-75.096;2023-06-22T01:24:04;0.20;;;0.20;;
15106;SDS011;7654;45.308;-75.096;2023-06-22T01:26:49;0.20;;;0.20;;
15106;SDS011;7654;45.308;-75.096;2023-06-22T01:29:30;0.20;;;0.20;;
15106;SDS011;7654;45.308;-75.096;2023-06-22T01:32:04;0.20;;;0.20;;
15106;SDS011;7654;45.308;-75.096;2023-06-22T01:34:36;0.20;;;0.20;;
15106;SDS011;7654;45.308;-75.096;2023-06-22T01:37:07;0.20;;;0.20;;
15106;SDS011;7654;45.308;-75.096;2023-06-22T01:39:38;0.20;;;0.20;;
15106;SDS011;7654;45.308;-75.096;2023-06-22T01:42:11;0.20;;;0.20;;
15106;SDS011;7654;45.308;-75.096;2023-06-22T01:44:46;0.20;;;0.20;;
15106;SDS011;7654;45.308;-75.096;2023-06-22T01:47:18;0.20;;;0.20;;
15106;SDS011;7654;45.308;-75.096;2023-06-22T01:49:50;0.20;;;0.20;;
15106;SDS011;7654;45.308;-75.096;2023-06-22T01:52:22;0.20;;;0.20;;
15106;SDS011;7654;45.308;-75.096;2023-06-22T01:54:54;0.20;;;0.20;;
15106;SDS011;7654;45.308;-75.096;2023-06-22T01:57:26;0.20;;;0.20;;
15106;SDS011;7654;45.308;-75.096;2023-06-22T02:00:00;0.20;;;0.20;;
15106;SDS011;7654;45.308;-75.096;2023-06-22T02:02:33;0.20;;;0.20;;
15106;SDS011;7654;45.308;-75.096;2023-06-22T02:05:10;0.23;;;0.23;;
15106;SDS011;7654;45.308;-75.096;2023-06-22T02:07:47;0.20;;;0.20;;
15106;SDS011;7654;45.308;-75.096;2023-06-22T02:10:22;0.20;;;0.20;;
15106;SDS011;7654;45.308;-75.096;2023-06-22T02:12:54;0.20;;;0.20;;
15106;SDS011;7654;45.308;-75.096;2023-06-22T02:15:31;0.20;;;0.20;;
15106;SDS011;7654;45.308;-75.096;2023-06-22T02:18:02;0.20;;;0.20;;
15106;SDS011;7654;45.308;-75.096;2023-06-22T02:20:36;0.20;;;0.20;;
15106;SDS011;7654;45.308;-75.096;2023-06-22T02:23:06;0.20;;;0.20;;
15106;SDS011;7654;45.308;-75.096;2023-06-22T02:25:37;0.20;;;0.20;;
15106;SDS011;7654;45.308;-75.096;2023-06-22T02:28:11;0.20;;;0.20;;
15106;SDS011;7654;45.308;-75.096;2023-06-22T02:30:45;0.30;;;0.30;;
15106;SDS011;7654;45.308;-75.096;2023-06-22T02:33:16;0.20;;;0.20;;
15106;SDS011;7654;45.308;-75.096;2023-06-22T02:35:47;0.20;;;0.20;;
15106;SDS011;7654;45.308;-75.096;2023-06-22T02:38:18;0.20;;;0.20;;
15106;SDS011;7654;45.308;-75.096;2023-06-22T02:40:48;0.30;;;0.30;;
15106;SDS011;7654;45.308;-75.096;2023-06-22T02:43:20;0.20;;;0.20;;
15106;SDS011;7654;45.308;-75.096;2023-06-22T02:45:55;0.23;;;0.23;;
15106;SDS011;7654;45.308;-75.096;2023-06-22T02:48:25;0.20;;;0.20;;
15106;SDS011;7654;45.308;-75.096;2023-06-22T02:50:57;0.30;;;0.30;;
15106;SDS011;7654;45.308;-75.096;2023-06-22T02:53:34;0.30;;;0.30;;
15106;SDS011;7654;45.308;-75.096;2023-06-22T02:56:08;0.30;;;0.30;;
15106;SDS011;7654;45.308;-75.096;2023-06-22T02:58:40;0.27;;;0.27;;
15106;SDS011;7654;45.308;-75.096;2023-06-22T03:01:17;0.20;;;0.20;;
15106;SDS011;7654;45.308;-75.096;2023-06-22T03:03:52;0.30;;;0.30;;
15106;SDS011;7654;45.308;-75.096;2023-06-22T03:06:22;0.30;;;0.30;;
15106;SDS011;7654;45.308;-75.096;2023-06-22T03:08:57;0.30;;;0.30;;
15106;SDS011;7654;45.308;-75.096;2023-06-22T03:11:28;0.20;;;0.20;;
15106;SDS011;7654;45.308;-75.096;2023-06-22T03:13:59;0.30;;;0.30;;
15106;SDS011;7654;45.308;-75.096;2023-06-22T03:16:32;0.20;;;0.20;;
15106;SDS011;7654;45.308;-75.096;2023-06-22T03:19:02;0.20;;;0.20;;
15106;SDS011;7654;45.308;-75.096;2023-06-22T03:21:32;0.30;;;0.30;;
15106;SDS011;7654;45.308;-75.096;2023-06-22T03:24:03;0.20;;;0.20;;
15106;SDS011;7654;45.308;-75.096;2023-06-22T03:26:33;0.30;;;0.30;;
15106;SDS011;7654;45.308;-75.096;2023-06-22T03:29:04;0.20;;;0.20;;
15106;SDS011;7654;45.308;-75.096;2023-06-22T03:31:36;0.20;;;0.20;;
15106;SDS011;7654;45.308;-75.096;2023-06-22T03:34:06;0.30;;;0.30;;
15106;SDS011;7654;45.308;-75.096;2023-06-22T03:36:37;0.30;;;0.30;;
15106;SDS011;7654;45.308;-75.096;2023-06-22T03:39:07;0.20;;;0.20;;
15106;SDS011;7654;45.308;-75.096;2023-06-22T03:41:37;0.20;;;0.20;;
15106;SDS011;7654;45.308;-75.096;2023-06-22T03:44:07;0.27;;;0.27;;
15106;SDS011;7654;45.308;-75.096;2023-06-22T03:46:41;0.23;;;0.23;;
15106;SDS011;7654;45.308;-75.096;2023-06-22T03:49:11;0.30;;;0.30;;
15106;SDS011;7654;45.308;-75.096;2023-06-22T03:51:41;0.30;;;0.30;;
15106;SDS011;7654;45.308;-75.096;2023-06-22T03:54:12;0.30;;;0.30;;
15106;SDS011;7654;45.308;-75.096;2023-06-22T03:56:42;0.30;;;0.30;;
15106;SDS011;7654;45.308;-75.096;2023-06-22T03:59:12;0.20;;;0.20;;
15106;SDS011;7654;45.308;-75.096;2023-06-22T04:01:44;0.30;;;0.30;;
15106;SDS011;7654;45.308;-75.096;2023-06-22T04:04:15;0.30;;;0.30;;
15106;SDS011;7654;45.308;-75.096;2023-06-22T04:06:45;0.20;;;0.20;;
15106;SDS011;7654;45.308;-75.096;2023-06-22T04:09:16;0.30;;;0.30;;
15106;SDS011;7654;45.308;-75.096;2023-06-22T04:11:46;0.30;;;0.30;;
15106;SDS011;7654;45.308;-75.096;2023-06-22T04:14:16;0.20;;;0.20;;
15106;SDS011;7654;45.308;-75.096;2023-06-22T04:16:48;0.30;;;0.30;;
15106;SDS011;7654;45.308;-75.096;2023-06-22T04:19:19;0.20;;;0.20;;
15106;SDS011;7654;45.308;-75.096;2023-06-22T04:21:49;0.30;;;0.30;;
15106;SDS011;7654;45.308;-75.096;2023-06-22T04:24:19;0.30;;;0.30;;
15106;SDS011;7654;45.308;-75.096;2023-06-22T04:26:50;0.30;;;0.30;;
15106;SDS011;7654;45.308;-75.096;2023-06-22T04:29:22;0.20;;;0.20;;
15106;SDS011;7654;45.308;-75.096;2023-06-22T04:31:59;0.20;;;0.20;;
15106;SDS011;7654;45.308;-75.096;2023-06-22T04:34:30;0.23;;;0.23;;
15106;SDS011;7654;45.308;-75.096;2023-06-22T04:37:01;0.40;;;0.40;;
15106;SDS011;7654;45.308;-75.096;2023-06-22T04:39:32;0.27;;;0.27;;
15106;SDS011;7654;45.308;-75.096;2023-06-22T04:42:03;0.30;;;0.30;;
15106;SDS011;7654;45.308;-75.096;2023-06-22T04:44:34;0.30;;;0.30;;
15106;SDS011;7654;45.308;-75.096;2023-06-22T04:47:06;0.30;;;0.30;;
15106;SDS011;7654;45.308;-75.096;2023-06-22T04:49:37;0.20;;;0.20;;
15106;SDS011;7654;45.308;-75.096;2023-06-22T04:52:07;0.20;;;0.20;;
15106;SDS011;7654;45.308;-75.096;2023-06-22T04:54:39;0.30;;;0.30;;
15106;SDS011;7654;45.308;-75.096;2023-06-22T04:57:15;0.30;;;0.30;;
15106;SDS011;7654;45.308;-75.096;2023-06-22T04:59:45;0.30;;;0.30;;
15106;SDS011;7654;45.308;-75.096;2023-06-22T05:02:17;0.20;;;0.20;;
15106;SDS011;7654;45.308;-75.096;2023-06-22T05:04:47;0.20;;;0.20;;
15106;SDS011;7654;45.308;-75.096;2023-06-22T05:07:19;0.30;;;0.30;;
15106;SDS011;7654;45.308;-75.096;2023-06-22T05:09:52;0.30;;;0.30;;
15106;SDS011;7654;45.308;-75.096;2023-06-22T05:12:22;0.20;;;0.20;;
15106;SDS011;7654;45.308;-75.096;2023-06-22T05:14:53;0.30;;;0.30;;
15106;SDS011;7654;45.308;-75.096;2023-06-22T05:17:25;0.30;;;0.30;;
15106;SDS011;7654;45.308;-75.096;2023-06-22T05:19:56;0.30;;;0.30;;
15106;SDS011;7654;45.308;-75.096;2023-06-22T05:22:26;0.40;;;0.40;;
15106;SDS011;7654;45.308;-75.096;2023-06-22T05:24:56;0.30;;;0.30;;
15106;SDS011;7654;45.308;-75.096;2023-06-22T05:27:26;0.30;;;0.30;;
15106;SDS011;7654;45.308;-75.096;2023-06-22T05:29:57;0.30;;;0.30;;
15106;SDS011;7654;45.308;-75.096;2023-06-22T05:32:29;0.30;;;0.30;;
15106;SDS011;7654;45.308;-75.096;2023-06-22T05:34:59;0.20;;;0.20;;
15106;SDS011;7654;45.308;-75.096;2023-06-22T05:37:29;0.20;;;0.20;;
15106;SDS011;7654;45.308;-75.096;2023-06-22T05:40:00;0.30;;;0.30;;
15106;SDS011;7654;45.308;-75.096;2023-06-22T05:42:31;0.30;;;0.30;;
15106;SDS011;7654;45.308;-75.096;2023-06-22T05:45:01;0.30;;;0.30;;
15106;SDS011;7654;45.308;-75.096;2023-06-22T05:47:33;0.37;;;0.37;;
15106;SDS011;7654;45.308;-75.096;2023-06-22T05:50:04;0.30;;;0.30;;
15106;SDS011;7654;45.308;-75.096;2023-06-22T05:52:39;0.20;;;0.20;;
15106;SDS011;7654;45.308;-75.096;2023-06-22T05:55:09;0.30;;;0.30;;
15106;SDS011;7654;45.308;-75.096;2023-06-22T05:57:39;0.30;;;0.30;;
15106;SDS011;7654;45.308;-75.096;2023-06-22T06:00:10;0.30;;;0.30;;
15106;SDS011;7654;45.308;-75.096;2023-06-22T06:02:42;0.30;;;0.30;;
15106;SDS011;7654;45.308;-75.096;2023-06-22T06:05:14;0.30;;;0.30;;
15106;SDS011;7654;45.308;-75.096;2023-06-22T06:07:45;0.20;;;0.20;;
15106;SDS011;7654;45.308;-75.096;2023-06-22T06:10:16;0.20;;;0.20;;
15106;SDS011;7654;45.308;-75.096;2023-06-22T06:12:46;0.30;;;0.30;;
15106;SDS011;7654;45.308;-75.096;2023-06-22T06:15:16;0.30;;;0.30;;
15106;SDS011;7654;45.308;-75.096;2023-06-22T06:17:49;0.30;;;0.30;;
15106;SDS011;7654;45.308;-75.096;2023-06-22T06:20:20;0.30;;;0.30;;
15106;SDS011;7654;45.308;-75.096;2023-06-22T06:22:52;0.30;;;0.30;;
15106;SDS011;7654;45.308;-75.096;2023-06-22T06:25:23;0.30;;;0.30;;
15106;SDS011;7654;45.308;-75.096;2023-06-22T06:27:53;0.20;;;0.20;;
15106;SDS011;7654;45.308;-75.096;2023-06-22T06:30:24;0.30;;;0.30;;
15106;SDS011;7654;45.308;-75.096;2023-06-22T06:32:56;0.30;;;0.30;;
15106;SDS011;7654;45.308;-75.096;2023-06-22T06:35:27;0.20;;;0.20;;
15106;SDS011;7654;45.308;-75.096;2023-06-22T06:37:57;0.30;;;0.30;;
15106;SDS011;7654;45.308;-75.096;2023-06-22T06:40:28;0.30;;;0.30;;
15106;SDS011;7654;45.308;-75.096;2023-06-22T06:42:59;0.30;;;0.30;;
15106;SDS011;7654;45.308;-75.096;2023-06-22T06:45:29;0.30;;;0.30;;
15106;SDS011;7654;45.308;-75.096;2023-06-22T06:48:03;0.30;;;0.30;;
15106;SDS011;7654;45.308;-75.096;2023-06-22T06:50:34;0.30;;;0.30;;
15106;SDS011;7654;45.308;-75.096;2023-06-22T06:53:04;0.30;;;0.30;;
15106;SDS011;7654;45.308;-75.096;2023-06-22T06:55:34;0.40;;;0.40;;
15106;SDS011;7654;45.308;-75.096;2023-06-22T06:58:05;0.30;;;0.30;;
15106;SDS011;7654;45.308;-75.096;2023-06-22T07:00:37;0.30;;;0.30;;
15106;SDS011;7654;45.308;-75.096;2023-06-22T07:03:09;0.30;;;0.30;;
15106;SDS011;7654;45.308;-75.096;2023-06-22T07:05:39;0.30;;;0.30;;
15106;SDS011;7654;45.308;-75.096;2023-06-22T07:08:10;0.20;;;0.20;;
15106;SDS011;7654;45.308;-75.096;2023-06-22T07:10:40;0.30;;;0.30;;
15106;SDS011;7654;45.308;-75.096;2023-06-22T07:13:10;0.30;;;0.30;;
15106;SDS011;7654;45.308;-75.096;2023-06-22T07:15:40;0.30;;;0.30;;
15106;SDS011;7654;45.308;-75.096;2023-06-22T07:18:12;0.30;;;0.30;;
15106;SDS011;7654;45.308;-75.096;2023-06-22T07:20:43;0.30;;;0.30;;
15106;SDS011;7654;45.308;-75.096;2023-06-22T07:23:13;0.30;;;0.30;;
15106;SDS011;7654;45.308;-75.096;2023-06-22T07:25:43;0.30;;;0.30;;
15106;SDS011;7654;45.308;-75.096;2023-06-22T07:28:13;0.30;;;0.30;;
15106;SDS011;7654;45.308;-75.096;2023-06-22T07:30:44;0.30;;;0.30;;
15106;SDS011;7654;45.308;-75.096;2023-06-22T07:33:17;0.30;;;0.30;;
15106;SDS011;7654;45.308;-75.096;2023-06-22T07:35:47;0.30;;;0.30;;
15106;SDS011;7654;45.308;-75.096;2023-06-22T07:38:19;0.30;;;0.30;;
15106;SDS011;7654;45.308;-75.096;2023-06-22T07:40:49;0.30;;;0.30;;
15106;SDS011;7654;45.308;-75.096;2023-06-22T07:43:21;0.30;;;0.30;;
15106;SDS011;7654;45.308;-75.096;2023-06-22T07:45:51;0.40;;;0.40;;
15106;SDS011;7654;45.308;-75.096;2023-06-22T07:48:24;0.30;;;0.30;;
15106;SDS011;7654;45.308;-75.096;2023-06-22T07:50:54;0.30;;;0.30;;
15106;SDS011;7654;45.308;-75.096;2023-06-22T07:53:24;0.30;;;0.30;;
15106;SDS011;7654;45.308;-75.096;2023-06-22T07:55:55;0.40;;;0.40;;
15106;SDS011;7654;45.308;-75.096;2023-06-22T07:58:26;0.30;;;0.30;;
15106;SDS011;7654;45.308;-75.096;2023-06-22T08:00:56;0.30;;;0.30;;
15106;SDS011;7654;45.308;-75.096;2023-06-22T08:03:28;0.40;;;0.40;;
15106;SDS011;7654;45.308;-75.096;2023-06-22T08:05:58;0.30;;;0.30;;
15106;SDS011;7654;45.308;-75.096;2023-06-22T08:08:28;0.30;;;0.30;;
15106;SDS011;7654;45.308;-75.096;2023-06-22T08:10:58;0.30;;;0.30;;
15106;SDS011;7654;45.308;-75.096;2023-06-22T08:13:29;0.30;;;0.30;;
15106;SDS011;7654;45.308;-75.096;2023-06-22T08:15:59;0.30;;;0.30;;
15106;SDS011;7654;45.308;-75.096;2023-06-22T08:18:31;0.30;;;0.30;;
15106;SDS011;7654;45.308;-75.096;2023-06-22T08:21:02;0.40;;;0.40;;
15106;SDS011;7654;45.308;-75.096;2023-06-22T08:23:32;0.30;;;0.30;;
15106;SDS011;7654;45.308;-75.096;2023-06-22T08:26:02;0.30;;;0.30;;
15106;SDS011;7654;45.308;-75.096;2023-06-22T08:28:33;0.30;;;0.30;;
15106;SDS011;7654;45.308;-75.096;2023-06-22T08:31:03;0.30;;;0.30;;
15106;SDS011;7654;45.308;-75.096;2023-06-22T08:33:35;0.30;;;0.30;;
15106;SDS011;7654;45.308;-75.096;2023-06-22T08:36:15;0.30;;;0.30;;
15106;SDS011;7654;45.308;-75.096;2023-06-22T08:38:45;0.30;;;0.30;;
15106;SDS011;7654;45.308;-75.096;2023-06-22T08:41:17;0.30;;;0.30;;
15106;SDS011;7654;45.308;-75.096;2023-06-22T08:43:47;0.30;;;0.30;;
15106;SDS011;7654;45.308;-75.096;2023-06-22T08:46:18;0.30;;;0.30;;
15106;SDS011;7654;45.308;-75.096;2023-06-22T08:48:52;0.30;;;0.30;;
15106;SDS011;7654;45.308;-75.096;2023-06-22T08:51:22;0.40;;;0.40;;
15106;SDS011;7654;45.308;-75.096;2023-06-22T08:53:52;0.30;;;0.30;;
15106;SDS011;7654;45.308;-75.096;2023-06-22T08:56:23;0.30;;;0.30;;
15106;SDS011;7654;45.308;-75.096;2023-06-22T08:58:53;0.23;;;0.23;;
15106;SDS011;7654;45.308;-75.096;2023-06-22T09:01:23;0.30;;;0.30;;
15106;SDS011;7654;45.308;-75.096;2023-06-22T09:03:55;0.40;;;0.40;;
15106;SDS011;7654;45.308;-75.096;2023-06-22T09:06:27;0.30;;;0.30;;
15106;SDS011;7654;45.308;-75.096;2023-06-22T09:08:58;0.30;;;0.30;;
15106;SDS011;7654;45.308;-75.096;2023-06-22T09:11:29;0.30;;;0.30;;
15106;SDS011;7654;45.308;-75.096;2023-06-22T09:13:59;0.30;;;0.30;;
15106;SDS011;7654;45.308;-75.096;2023-06-22T09:16:31;0.30;;;0.30;;
15106;SDS011;7654;45.308;-75.096;2023-06-22T09:19:03;0.30;;;0.30;;
15106;SDS011;7654;45.308;-75.096;2023-06-22T09:21:33;0.20;;;0.20;;
15106;SDS011;7654;45.308;-75.096;2023-06-22T09:24:04;0.30;;;0.30;;
15106;SDS011;7654;45.308;-75.096;2023-06-22T09:26:35;0.40;;;0.40;;
15106;SDS011;7654;45.308;-75.096;2023-06-22T09:29:06;0.30;;;0.30;;
15106;SDS011;7654;45.308;-75.096;2023-06-22T09:31:36;0.30;;;0.30;;
15106;SDS011;7654;45.308;-75.096;2023-06-22T09:34:08;0.30;;;0.30;;
15106;SDS011;7654;45.308;-75.096;2023-06-22T09:36:41;0.30;;;0.30;;
15106;SDS011;7654;45.308;-75.096;2023-06-22T09:39:11;0.40;;;0.40;;
15106;SDS011;7654;45.308;-75.096;2023-06-22T09:41:42;0.30;;;0.30;;
15106;SDS011;7654;45.308;-75.096;2023-06-22T09:44:12;0.30;;;0.30;;
15106;SDS011;7654;45.308;-75.096;2023-06-22T09:46:42;0.40;;;0.40;;
15106;SDS011;7654;45.308;-75.096;2023-06-22T09:49:14;0.37;;;0.37;;
15106;SDS011;7654;45.308;-75.096;2023-06-22T09:51:53;0.30;;;0.30;;
15106;SDS011;7654;45.308;-75.096;2023-06-22T09:54:23;0.40;;;0.40;;
15106;SDS011;7654;45.308;-75.096;2023-06-22T09:56:54;0.40;;;0.40;;
15106;SDS011;7654;45.308;-75.096;2023-06-22T09:59:24;0.40;;;0.40;;
15106;SDS011;7654;45.308;-75.096;2023-06-22T10:01:54;0.40;;;0.40;;
15106;SDS011;7654;45.308;-75.096;2023-06-22T10:04:26;0.30;;;0.30;;
15106;SDS011;7654;45.308;-75.096;2023-06-22T10:06:58;0.40;;;0.40;;
15106;SDS011;7654;45.308;-75.096;2023-06-22T10:09:28;0.30;;;0.30;;
15106;SDS011;7654;45.308;-75.096;2023-06-22T10:11:59;0.20;;;0.20;;
15106;SDS011;7654;45.308;-75.096;2023-06-22T10:14:29;0.30;;;0.30;;
15106;SDS011;7654;45.308;-75.096;2023-06-22T10:16:59;0.30;;;0.30;;
15106;SDS011;7654;45.308;-75.096;2023-06-22T10:19:33;0.40;;;0.40;;
15106;SDS011;7654;45.308;-75.096;2023-06-22T10:22:05;0.30;;;0.30;;
15106;SDS011;7654;45.308;-75.096;2023-06-22T10:24:35;0.30;;;0.30;;
15106;SDS011;7654;45.308;-75.096;2023-06-22T10:27:11;0.30;;;0.30;;
15106;SDS011;7654;45.308;-75.096;2023-06-22T10:29:42;0.30;;;0.30;;
15106;SDS011;7654;45.308;-75.096;2023-06-22T10:32:13;0.30;;;0.30;;
15106;SDS011;7654;45.308;-75.096;2023-06-22T10:34:45;0.30;;;0.30;;
15106;SDS011;7654;45.308;-75.096;2023-06-22T10:37:15;0.30;;;0.30;;
15106;SDS011;7654;45.308;-75.096;2023-06-22T10:39:45;0.40;;;0.40;;
15106;SDS011;7654;45.308;-75.096;2023-06-22T10:42:15;0.37;;;0.37;;
15106;SDS011;7654;45.308;-75.096;2023-06-22T10:44:46;0.30;;;0.30;;
15106;SDS011;7654;45.308;-75.096;2023-06-22T10:47:16;0.30;;;0.30;;
15106;SDS011;7654;45.308;-75.096;2023-06-22T10:49:48;0.30;;;0.30;;
15106;SDS011;7654;45.308;-75.096;2023-06-22T10:52:18;0.30;;;0.30;;
15106;SDS011;7654;45.308;-75.096;2023-06-22T10:54:49;0.30;;;0.30;;
15106;SDS011;7654;45.308;-75.096;2023-06-22T10:57:19;0.30;;;0.30;;
15106;SDS011;7654;45.308;-75.096;2023-06-22T10:59:50;0.30;;;0.30;;
15106;SDS011;7654;45.308;-75.096;2023-06-22T11:02:21;0.30;;;0.30;;
15106;SDS011;7654;45.308;-75.096;2023-06-22T11:04:53;0.30;;;0.30;;
15106;SDS011;7654;45.308;-75.096;2023-06-22T11:07:23;0.30;;;0.30;;
15106;SDS011;7654;45.308;-75.096;2023-06-22T11:09:55;0.30;;;0.30;;
15106;SDS011;7654;45.308;-75.096;2023-06-22T11:12:25;0.30;;;0.30;;
15106;SDS011;7654;45.308;-75.096;2023-06-22T11:14:55;0.30;;;0.30;;
15106;SDS011;7654;45.308;-75.096;2023-06-22T11:17:25;0.20;;;0.20;;
15106;SDS011;7654;45.308;-75.096;2023-06-22T11:19:57;0.30;;;0.30;;
15106;SDS011;7654;45.308;-75.096;2023-06-22T11:22:27;0.20;;;0.20;;
15106;SDS011;7654;45.308;-75.096;2023-06-22T11:25:00;0.20;;;0.20;;
15106;SDS011;7654;45.308;-75.096;2023-06-22T11:27:31;0.30;;;0.30;;
15106;SDS011;7654;45.308;-75.096;2023-06-22T11:30:01;0.20;;;0.20;;
15106;SDS011;7654;45.308;-75.096;2023-06-22T11:32:31;0.27;;;0.27;;
15106;SDS011;7654;45.308;-75.096;2023-06-22T11:35:05;0.30;;;0.30;;
15106;SDS011;7654;45.308;-75.096;2023-06-22T11:37:35;0.20;;;0.20;;
15106;SDS011;7654;45.308;-75.096;2023-06-22T11:40:06;0.20;;;0.20;;
15106;SDS011;7654;45.308;-75.096;2023-06-22T11:42:37;0.20;;;0.20;;
15106;SDS011;7654;45.308;-75.096;2023-06-22T11:45:08;0.20;;;0.20;;
15106;SDS011;7654;45.308;-75.096;2023-06-22T11:47:39;0.20;;;0.20;;
15106;SDS011;7654;45.308;-75.096;2023-06-22T11:50:11;0.20;;;0.20;;
15106;SDS011;7654;45.308;-75.096;2023-06-22T11:52:42;0.10;;;0.10;;
15106;SDS011;7654;45.308;-75.096;2023-06-22T11:55:12;0.20;;;0.20;;
15106;SDS011;7654;45.308;-75.096;2023-06-22T11:57:52;0.20;;;0.20;;
15106;SDS011;7654;45.308;-75.096;2023-06-22T12:00:23;0.20;;;0.20;;
15106;SDS011;7654;45.308;-75.096;2023-06-22T12:02:56;0.20;;;0.20;;
15106;SDS011;7654;45.308;-75.096;2023-06-22T12:05:29;0.20;;;0.20;;
15106;SDS011;7654;45.308;-75.096;2023-06-22T12:08:00;0.20;;;0.20;;
15106;SDS011;7654;45.308;-75.096;2023-06-22T12:10:30;0.20;;;0.20;;
15106;SDS011;7654;45.308;-75.096;2023-06-22T12:13:01;0.20;;;0.20;;
15106;SDS011;7654;45.308;-75.096;2023-06-22T12:15:32;0.20;;;0.20;;
15106;SDS011;7654;45.308;-75.096;2023-06-22T12:18:02;0.20;;;0.20;;
15106;SDS011;7654;45.308;-75.096;2023-06-22T12:20:34;0.20;;;0.20;;
15106;SDS011;7654;45.308;-75.096;2023-06-22T12:23:04;0.20;;;0.20;;
15106;SDS011;7654;45.308;-75.096;2023-06-22T12:25:35;0.20;;;0.20;;
15106;SDS011;7654;45.308;-75.096;2023-06-22T12:28:05;0.20;;;0.20;;
15106;SDS011;7654;45.308;-75.096;2023-06-22T12:30:35;0.20;;;0.20;;
15106;SDS011;7654;45.308;-75.096;2023-06-22T12:33:05;0.20;;;0.20;;
15106;SDS011;7654;45.308;-75.096;2023-06-22T12:35:37;0.20;;;0.20;;
15106;SDS011;7654;45.308;-75.096;2023-06-22T12:38:08;0.20;;;0.20;;
15106;SDS011;7654;45.308;-75.096;2023-06-22T12:40:38;0.10;;;0.10;;
15106;SDS011;7654;45.308;-75.096;2023-06-22T12:43:09;0.20;;;0.20;;
15106;SDS011;7654;45.308;-75.096;2023-06-22T12:45:39;0.20;;;0.20;;
15106;SDS011;7654;45.308;-75.096;2023-06-22T12:48:10;0.10;;;0.10;;
15106;SDS011;7654;45.308;-75.096;2023-06-22T12:50:42;0.20;;;0.20;;
15106;SDS011;7654;45.308;-75.096;2023-06-22T12:53:12;0.20;;;0.20;;
15106;SDS011;7654;45.308;-75.096;2023-06-22T12:55:43;0.10;;;0.10;;
15106;SDS011;7654;45.308;-75.096;2023-06-22T12:58:13;0.10;;;0.10;;
15106;SDS011;7654;45.308;-75.096;2023-06-22T13:00:44;0.20;;;0.20;;
15106;SDS011;7654;45.308;-75.096;2023-06-22T13:03:14;0.17;;;0.17;;
15106;SDS011;7654;45.308;-75.096;2023-06-22T13:05:46;0.10;;;0.10;;
15106;SDS011;7654;45.308;-75.096;2023-06-22T13:08:17;0.10;;;0.10;;
15106;SDS011;7654;45.308;-75.096;2023-06-22T13:10:47;0.20;;;0.20;;
15106;SDS011;7654;45.308;-75.096;2023-06-22T13:13:17;0.20;;;0.20;;
15106;SDS011;7654;45.308;-75.096;2023-06-22T13:15:47;0.20;;;0.20;;
15106;SDS011;7654;45.308;-75.096;2023-06-22T13:18:18;0.20;;;0.20;;
15106;SDS011;7654;45.308;-75.096;2023-06-22T13:20:49;0.10;;;0.10;;
15106;SDS011;7654;45.308;-75.096;2023-06-22T13:23:22;0.10;;;0.10;;
15106;SDS011;7654;45.308;-75.096;2023-06-22T13:25:52;0.20;;;0.20;;
15106;SDS011;7654;45.308;-75.096;2023-06-22T13:28:22;0.20;;;0.20;;
15106;SDS011;7654;45.308;-75.096;2023-06-22T13:30:54;0.20;;;0.20;;
15106;SDS011;7654;45.308;-75.096;2023-06-22T13:33:25;0.10;;;0.10;;
15106;SDS011;7654;45.308;-75.096;2023-06-22T13:35:57;0.10;;;0.10;;
15106;SDS011;7654;45.308;-75.096;2023-06-22T13:38:27;0.20;;;0.20;;
15106;SDS011;7654;45.308;-75.096;2023-06-22T13:40:58;0.10;;;0.10;;
15106;SDS011;7654;45.308;-75.096;2023-06-22T13:43:28;0.20;;;0.20;;
15106;SDS011;7654;45.308;-75.096;2023-06-22T13:45:58;0.20;;;0.20;;
15106;SDS011;7654;45.308;-75.096;2023-06-22T13:48:29;0.20;;;0.20;;
15106;SDS011;7654;45.308;-75.096;2023-06-22T13:51:01;0.20;;;0.20;;
15106;SDS011;7654;45.308;-75.096;2023-06-22T13:53:31;0.10;;;0.10;;
15106;SDS011;7654;45.308;-75.096;2023-06-22T13:56:02;0.10;;;0.10;;
15106;SDS011;7654;45.308;-75.096;2023-06-22T13:58:32;0.20;;;0.20;;
15106;SDS011;7654;45.308;-75.096;2023-06-22T14:01:04;0.20;;;0.20;;
15106;SDS011;7654;45.308;-75.096;2023-06-22T14:03:42;0.20;;;0.20;;
15106;SDS011;7654;45.308;-75.096;2023-06-22T14:06:16;0.20;;;0.20;;
15106;SDS011;7654;45.308;-75.096;2023-06-22T14:08:47;0.20;;;0.20;;
15106;SDS011;7654;45.308;-75.096;2023-06-22T14:11:18;0.20;;;0.20;;
15106;SDS011;7654;45.308;-75.096;2023-06-22T14:13:48;0.20;;;0.20;;
15106;SDS011;7654;45.308;-75.096;2023-06-22T14:16:19;0.10;;;0.10;;
15106;SDS011;7654;45.308;-75.096;2023-06-22T14:18:49;0.20;;;0.20;;
15106;SDS011;7654;45.308;-75.096;2023-06-22T14:21:27;0.10;;;0.10;;
15106;SDS011;7654;45.308;-75.096;2023-06-22T14:23:58;0.20;;;0.20;;
15106;SDS011;7654;45.308;-75.096;2023-06-22T14:26:28;0.20;;;0.20;;
15106;SDS011;7654;45.308;-75.096;2023-06-22T14:28:59;0.20;;;0.20;;
15106;SDS011;7654;45.308;-75.096;2023-06-22T14:31:29;0.20;;;0.20;;
15106;SDS011;7654;45.308;-75.096;2023-06-22T14:33:59;0.20;;;0.20;;
15106;SDS011;7654;45.308;-75.096;2023-06-22T14:36:32;0.20;;;0.20;;
15106;SDS011;7654;45.308;-75.096;2023-06-22T14:39:03;0.17;;;0.17;;
15106;SDS011;7654;45.308;-75.096;2023-06-22T14:41:33;0.20;;;0.20;;
15106;SDS011;7654;45.308;-75.096;2023-06-22T14:44:03;0.17;;;0.17;;
15106;SDS011;7654;45.308;-75.096;2023-06-22T14:46:33;0.20;;;0.20;;
15106;SDS011;7654;45.308;-75.096;2023-06-22T14:49:04;0.10;;;0.10;;
15106;SDS011;7654;45.308;-75.096;2023-06-22T14:51:36;0.20;;;0.20;;
15106;SDS011;7654;45.308;-75.096;2023-06-22T14:54:06;0.20;;;0.20;;
15106;SDS011;7654;45.308;-75.096;2023-06-22T14:56:37;0.10;;;0.10;;